sensor_id;sensor_type;location;lat;lon;timestamp;P1;durP1;ratioP1;P2;durP2;ratioP2
29120;SDS011;16191;49.548;8.658;2024-03-08T00:00:42;25.10;;;16.42;;
29120;SDS011;16191;49.548;8.658;2024-03-08T00:03:09;26.85;;;16.42;;
29120;SDS011;16191;49.548;8.658;2024-03-08T00:05:36;32.38;;;17.20;;
29120;SDS011;16191;49.548;8.658;2024-03-08T00:08:05;27.88;;;15.60;;
29120;SDS011;16191;49.548;8.658;2024-03-08T00:10:36;34.08;;;16.55;;
29120;SDS011;16191;49.548;8.658;2024-03-08T00:13:02;24.90;;;16.23;;
29120;SDS011;16191;49.548;8.658;2024-03-08T00:15:30;31.08;;;16.95;;
29120;SDS011;16191;49.548;8.658;2024-03-08T00:17:58;28.02;;;17.00;;
29120;SDS011;16191;49.548;8.658;2024-03-08T00:20:25;31.33;;;17.05;;
29120;SDS011;16191;49.548;8.658;2024-03-08T00:22:52;27.20;;;16.73;;
29120;SDS011;16191;49.548;8.658;2024-03-08T00:25:19;27.15;;;17.15;;
29120;SDS011;16191;49.548;8.658;2024-03-08T00:27:46;29.80;;;17.23;;
29120;SDS011;16191;49.548;8.658;2024-03-08T00:30:16;28.90;;;16.88;;
29120;SDS011;16191;49.548;8.658;2024-03-08T00:32:43;27.23;;;17.02;;
29120;SDS011;16191;49.548;8.658;2024-03-08T00:35:10;30.55;;;16.88;;
29120;SDS011;16191;49.548;8.658;2024-03-08T00:37:37;29.52;;;17.10;;
29120;SDS011;16191;49.548;8.658;2024-03-08T00:40:04;25.35;;;16.58;;
29120;SDS011;16191;49.548;8.658;2024-03-08T00:42:33;29.50;;;17.30;;
29120;SDS011;16191;49.548;8.658;2024-03-08T00:45:00;28.80;;;16.55;;
29120;SDS011;16191;49.548;8.658;2024-03-08T00:47:27;30.88;;;15.93;;
29120;SDS011;16191;49.548;8.658;2024-03-08T00:49:54;27.88;;;16.98;;
29120;SDS011;16191;49.548;8.658;2024-03-08T00:52:23;28.17;;;16.92;;
29120;SDS011;16191;49.548;8.658;2024-03-08T00:54:53;31.67;;;16.23;;
29120;SDS011;16191;49.548;8.658;2024-03-08T00:57:20;29.42;;;17.23;;
29120;SDS011;16191;49.548;8.658;2024-03-08T00:59:47;28.17;;;16.10;;
29120;SDS011;16191;49.548;8.658;2024-03-08T01:02:14;31.05;;;17.23;;
29120;SDS011;16191;49.548;8.658;2024-03-08T01:04:43;27.65;;;16.13;;
29120;SDS011;16191;49.548;8.658;2024-03-08T01:07:10;26.98;;;16.73;;
29120;SDS011;16191;49.548;8.658;2024-03-08T01:09:37;31.13;;;16.52;;
29120;SDS011;16191;49.548;8.658;2024-03-08T01:12:04;28.05;;;16.67;;
29120;SDS011;16191;49.548;8.658;2024-03-08T01:14:33;28.88;;;16.77;;
29120;SDS011;16191;49.548;8.658;2024-03-08T01:17:00;27.17;;;16.65;;
29120;SDS011;16191;49.548;8.658;2024-03-08T01:19:27;26.80;;;16.25;;
29120;SDS011;16191;49.548;8.658;2024-03-08T01:21:53;26.52;;;16.38;;
29120;SDS011;16191;49.548;8.658;2024-03-08T01:24:23;26.50;;;15.63;;
29120;SDS011;16191;49.548;8.658;2024-03-08T01:26:49;28.98;;;15.98;;
29120;SDS011;16191;49.548;8.658;2024-03-08T01:29:17;27.77;;;16.08;;
29120;SDS011;16191;49.548;8.658;2024-03-08T01:31:44;26.70;;;16.27;;
29120;SDS011;16191;49.548;8.658;2024-03-08T01:34:10;24.02;;;15.55;;
29120;SDS011;16191;49.548;8.658;2024-03-08T01:36:37;25.52;;;16.25;;
29120;SDS011;16191;49.548;8.658;2024-03-08T01:39:04;26.92;;;15.55;;
29120;SDS011;16191;49.548;8.658;2024-03-08T01:41:35;24.45;;;16.13;;
29120;SDS011;16191;49.548;8.658;2024-03-08T01:44:02;30.65;;;16.65;;
29120;SDS011;16191;49.548;8.658;2024-03-08T01:46:29;27.27;;;16.30;;
29120;SDS011;16191;49.548;8.658;2024-03-08T01:48:57;25.85;;;15.13;;
29120;SDS011;16191;49.548;8.658;2024-03-08T01:51:24;24.85;;;14.80;;
29120;SDS011;16191;49.548;8.658;2024-03-08T01:53:51;25.60;;;15.48;;
29120;SDS011;16191;49.548;8.658;2024-03-08T01:56:19;25.88;;;15.63;;
29120;SDS011;16191;49.548;8.658;2024-03-08T01:58:46;24.80;;;15.43;;
29120;SDS011;16191;49.548;8.658;2024-03-08T02:01:14;27.13;;;14.77;;
29120;SDS011;16191;49.548;8.658;2024-03-08T02:03:42;26.00;;;15.00;;
29120;SDS011;16191;49.548;8.658;2024-03-08T02:08:44;28.38;;;15.48;;
29120;SDS011;16191;49.548;8.658;2024-03-08T02:11:13;25.15;;;15.07;;
29120;SDS011;16191;49.548;8.658;2024-03-08T02:13:40;26.60;;;16.33;;
29120;SDS011;16191;49.548;8.658;2024-03-08T02:16:07;30.88;;;16.67;;
29120;SDS011;16191;49.548;8.658;2024-03-08T02:18:35;35.80;;;17.95;;
29120;SDS011;16191;49.548;8.658;2024-03-08T02:21:03;29.50;;;16.95;;
29120;SDS011;16191;49.548;8.658;2024-03-08T02:23:34;27.23;;;16.08;;
29120;SDS011;16191;49.548;8.658;2024-03-08T02:26:02;30.33;;;17.02;;
29120;SDS011;16191;49.548;8.658;2024-03-08T02:28:30;25.83;;;16.15;;
29120;SDS011;16191;49.548;8.658;2024-03-08T02:30:57;35.80;;;17.85;;
29120;SDS011;16191;49.548;8.658;2024-03-08T02:33:25;31.50;;;17.25;;
29120;SDS011;16191;49.548;8.658;2024-03-08T02:36:13;27.42;;;16.25;;
29120;SDS011;16191;49.548;8.658;2024-03-08T02:39:01;29.30;;;16.00;;
29120;SDS011;16191;49.548;8.658;2024-03-08T02:41:49;24.92;;;16.08;;
29120;SDS011;16191;49.548;8.658;2024-03-08T02:44:35;28.65;;;15.65;;
29120;SDS011;16191;49.548;8.658;2024-03-08T02:47:22;30.63;;;16.85;;
29120;SDS011;16191;49.548;8.658;2024-03-08T02:50:13;28.45;;;16.83;;
29120;SDS011;16191;49.548;8.658;2024-03-08T02:52:42;27.92;;;17.05;;
29120;SDS011;16191;49.548;8.658;2024-03-08T02:55:09;27.95;;;16.50;;
29120;SDS011;16191;49.548;8.658;2024-03-08T02:57:39;27.23;;;16.40;;
29120;SDS011;16191;49.548;8.658;2024-03-08T03:00:06;24.92;;;14.45;;
29120;SDS011;16191;49.548;8.658;2024-03-08T03:02:36;30.45;;;15.88;;
29120;SDS011;16191;49.548;8.658;2024-03-08T03:05:04;25.55;;;15.10;;
29120;SDS011;16191;49.548;8.658;2024-03-08T03:07:32;30.67;;;15.95;;
29120;SDS011;16191;49.548;8.658;2024-03-08T03:10:02;27.95;;;14.88;;
29120;SDS011;16191;49.548;8.658;2024-03-08T03:12:29;28.27;;;15.88;;
29120;SDS011;16191;49.548;8.658;2024-03-08T03:14:57;29.35;;;16.20;;
29120;SDS011;16191;49.548;8.658;2024-03-08T03:17:24;28.17;;;15.48;;
29120;SDS011;16191;49.548;8.658;2024-03-08T03:19:51;26.02;;;15.63;;
29120;SDS011;16191;49.548;8.658;2024-03-08T03:22:18;31.35;;;16.48;;
29120;SDS011;16191;49.548;8.658;2024-03-08T03:24:46;26.25;;;15.50;;
29120;SDS011;16191;49.548;8.658;2024-03-08T03:27:13;24.50;;;15.23;;
29120;SDS011;16191;49.548;8.658;2024-03-08T03:29:42;28.42;;;16.83;;
29120;SDS011;16191;49.548;8.658;2024-03-08T03:32:12;24.90;;;15.32;;
29120;SDS011;16191;49.548;8.658;2024-03-08T03:34:40;24.83;;;14.88;;
29120;SDS011;16191;49.548;8.658;2024-03-08T03:37:07;27.52;;;16.65;;
29120;SDS011;16191;49.548;8.658;2024-03-08T03:39:40;27.17;;;16.67;;
29120;SDS011;16191;49.548;8.658;2024-03-08T03:42:15;28.65;;;15.98;;
29120;SDS011;16191;49.548;8.658;2024-03-08T03:44:46;24.63;;;15.32;;
29120;SDS011;16191;49.548;8.658;2024-03-08T03:47:15;33.15;;;16.30;;
29120;SDS011;16191;49.548;8.658;2024-03-08T03:49:42;25.00;;;16.52;;
29120;SDS011;16191;49.548;8.658;2024-03-08T03:52:09;28.25;;;15.85;;
29120;SDS011;16191;49.548;8.658;2024-03-08T03:54:36;26.33;;;16.30;;
29120;SDS011;16191;49.548;8.658;2024-03-08T03:57:03;31.15;;;16.98;;
29120;SDS011;16191;49.548;8.658;2024-03-08T03:59:30;25.73;;;16.17;;
29120;SDS011;16191;49.548;8.658;2024-03-08T04:01:58;33.03;;;16.38;;
29120;SDS011;16191;49.548;8.658;2024-03-08T04:04:24;29.38;;;16.75;;
29120;SDS011;16191;49.548;8.658;2024-03-08T04:06:51;28.88;;;16.35;;
29120;SDS011;16191;49.548;8.658;2024-03-08T04:09:18;26.83;;;16.52;;
29120;SDS011;16191;49.548;8.658;2024-03-08T04:11:45;31.52;;;17.17;;
29120;SDS011;16191;49.548;8.658;2024-03-08T04:14:12;29.75;;;17.67;;
29120;SDS011;16191;49.548;8.658;2024-03-08T04:16:39;28.48;;;16.67;;
29120;SDS011;16191;49.548;8.658;2024-03-08T04:19:06;29.80;;;16.83;;
29120;SDS011;16191;49.548;8.658;2024-03-08T04:21:33;33.17;;;17.38;;
29120;SDS011;16191;49.548;8.658;2024-03-08T04:23:59;26.55;;;15.40;;
29120;SDS011;16191;49.548;8.658;2024-03-08T04:26:26;30.25;;;17.45;;
29120;SDS011;16191;49.548;8.658;2024-03-08T04:28:53;32.97;;;17.83;;
29120;SDS011;16191;49.548;8.658;2024-03-08T04:31:20;32.13;;;18.42;;
29120;SDS011;16191;49.548;8.658;2024-03-08T04:33:48;29.73;;;17.80;;
29120;SDS011;16191;49.548;8.658;2024-03-08T04:36:15;30.35;;;18.35;;
29120;SDS011;16191;49.548;8.658;2024-03-08T04:38:41;30.98;;;16.45;;
29120;SDS011;16191;49.548;8.658;2024-03-08T04:41:08;30.48;;;16.55;;
29120;SDS011;16191;49.548;8.658;2024-03-08T04:43:36;30.08;;;17.17;;
29120;SDS011;16191;49.548;8.658;2024-03-08T04:46:03;33.97;;;17.83;;
29120;SDS011;16191;49.548;8.658;2024-03-08T04:48:30;31.40;;;18.05;;
29120;SDS011;16191;49.548;8.658;2024-03-08T04:50:57;29.17;;;16.73;;
29120;SDS011;16191;49.548;8.658;2024-03-08T04:53:24;32.72;;;17.55;;
29120;SDS011;16191;49.548;8.658;2024-03-08T04:55:50;31.63;;;19.10;;
29120;SDS011;16191;49.548;8.658;2024-03-08T04:58:17;28.05;;;16.75;;
29120;SDS011;16191;49.548;8.658;2024-03-08T05:00:45;32.85;;;18.00;;
29120;SDS011;16191;49.548;8.658;2024-03-08T05:03:12;29.70;;;17.05;;
29120;SDS011;16191;49.548;8.658;2024-03-08T05:05:38;30.10;;;16.40;;
29120;SDS011;16191;49.548;8.658;2024-03-08T05:08:06;29.67;;;16.90;;
29120;SDS011;16191;49.548;8.658;2024-03-08T05:10:33;33.22;;;17.58;;
29120;SDS011;16191;49.548;8.658;2024-03-08T05:12:59;31.20;;;17.27;;
29120;SDS011;16191;49.548;8.658;2024-03-08T05:15:26;34.13;;;17.45;;
29120;SDS011;16191;49.548;8.658;2024-03-08T05:17:53;30.27;;;17.83;;
29120;SDS011;16191;49.548;8.658;2024-03-08T05:20:22;32.00;;;17.73;;
29120;SDS011;16191;49.548;8.658;2024-03-08T05:22:49;31.00;;;17.95;;
29120;SDS011;16191;49.548;8.658;2024-03-08T05:25:17;30.92;;;17.58;;
29120;SDS011;16191;49.548;8.658;2024-03-08T05:27:44;33.42;;;18.17;;
29120;SDS011;16191;49.548;8.658;2024-03-08T05:30:10;30.33;;;18.13;;
29120;SDS011;16191;49.548;8.658;2024-03-08T05:32:41;30.80;;;17.42;;
29120;SDS011;16191;49.548;8.658;2024-03-08T05:35:11;33.80;;;19.33;;
29120;SDS011;16191;49.548;8.658;2024-03-08T05:37:39;36.10;;;19.20;;
29120;SDS011;16191;49.548;8.658;2024-03-08T05:40:06;32.95;;;18.17;;
29120;SDS011;16191;49.548;8.658;2024-03-08T05:42:42;27.73;;;16.52;;
29120;SDS011;16191;49.548;8.658;2024-03-08T05:45:09;36.20;;;19.27;;
29120;SDS011;16191;49.548;8.658;2024-03-08T05:47:39;29.58;;;18.10;;
29120;SDS011;16191;49.548;8.658;2024-03-08T05:50:06;33.30;;;17.15;;
29120;SDS011;16191;49.548;8.658;2024-03-08T05:52:36;33.83;;;18.15;;
29120;SDS011;16191;49.548;8.658;2024-03-08T05:55:05;34.30;;;18.30;;
29120;SDS011;16191;49.548;8.658;2024-03-08T05:57:34;31.60;;;18.33;;
29120;SDS011;16191;49.548;8.658;2024-03-08T06:00:01;29.63;;;17.13;;
29120;SDS011;16191;49.548;8.658;2024-03-08T06:02:38;34.50;;;18.70;;
29120;SDS011;16191;49.548;8.658;2024-03-08T06:07:36;34.50;;;18.20;;
29120;SDS011;16191;49.548;8.658;2024-03-08T06:10:03;30.20;;;17.42;;
29120;SDS011;16191;49.548;8.658;2024-03-08T06:12:30;31.13;;;17.88;;
29120;SDS011;16191;49.548;8.658;2024-03-08T06:14:59;33.03;;;18.35;;
29120;SDS011;16191;49.548;8.658;2024-03-08T06:17:26;31.33;;;17.50;;
29120;SDS011;16191;49.548;8.658;2024-03-08T06:19:53;32.80;;;18.40;;
29120;SDS011;16191;49.548;8.658;2024-03-08T06:22:20;36.10;;;19.42;;
29120;SDS011;16191;49.548;8.658;2024-03-08T06:24:47;31.85;;;19.05;;
29120;SDS011;16191;49.548;8.658;2024-03-08T06:27:14;34.65;;;17.27;;
29120;SDS011;16191;49.548;8.658;2024-03-08T06:29:40;35.00;;;18.92;;
29120;SDS011;16191;49.548;8.658;2024-03-08T06:32:07;33.67;;;19.08;;
29120;SDS011;16191;49.548;8.658;2024-03-08T06:34:34;34.10;;;18.70;;
29120;SDS011;16191;49.548;8.658;2024-03-08T06:37:01;37.47;;;19.13;;
29120;SDS011;16191;49.548;8.658;2024-03-08T06:39:28;34.50;;;18.50;;
29120;SDS011;16191;49.548;8.658;2024-03-08T06:41:58;32.00;;;18.80;;
29120;SDS011;16191;49.548;8.658;2024-03-08T06:44:24;35.85;;;19.50;;
29120;SDS011;16191;49.548;8.658;2024-03-08T06:46:52;31.60;;;17.60;;
29120;SDS011;16191;49.548;8.658;2024-03-08T06:49:18;37.38;;;18.83;;
29120;SDS011;16191;49.548;8.658;2024-03-08T06:51:46;35.88;;;19.17;;
29120;SDS011;16191;49.548;8.658;2024-03-08T06:54:12;37.42;;;19.25;;
29120;SDS011;16191;49.548;8.658;2024-03-08T06:56:40;33.00;;;19.30;;
29120;SDS011;16191;49.548;8.658;2024-03-08T06:59:08;29.38;;;17.05;;
29120;SDS011;16191;49.548;8.658;2024-03-08T07:01:39;28.98;;;17.42;;
29120;SDS011;16191;49.548;8.658;2024-03-08T07:04:06;31.95;;;17.88;;
29120;SDS011;16191;49.548;8.658;2024-03-08T07:06:33;32.58;;;18.35;;
29120;SDS011;16191;49.548;8.658;2024-03-08T07:08:59;27.63;;;16.10;;
29120;SDS011;16191;49.548;8.658;2024-03-08T07:11:27;28.77;;;17.40;;
29120;SDS011;16191;49.548;8.658;2024-03-08T07:13:54;30.95;;;16.55;;
29120;SDS011;16191;49.548;8.658;2024-03-08T07:16:21;41.28;;;16.10;;
29120;SDS011;16191;49.548;8.658;2024-03-08T07:18:48;28.15;;;16.13;;
29120;SDS011;16191;49.548;8.658;2024-03-08T07:21:19;30.35;;;17.45;;
29120;SDS011;16191;49.548;8.658;2024-03-08T07:23:46;28.67;;;16.88;;
29120;SDS011;16191;49.548;8.658;2024-03-08T07:26:19;28.20;;;16.63;;
29120;SDS011;16191;49.548;8.658;2024-03-08T07:28:47;27.40;;;16.63;;
29120;SDS011;16191;49.548;8.658;2024-03-08T07:31:13;29.77;;;16.30;;
29120;SDS011;16191;49.548;8.658;2024-03-08T07:33:40;32.53;;;16.40;;
29120;SDS011;16191;49.548;8.658;2024-03-08T07:36:07;24.85;;;15.23;;
29120;SDS011;16191;49.548;8.658;2024-03-08T07:38:35;25.52;;;15.82;;
29120;SDS011;16191;49.548;8.658;2024-03-08T07:41:02;26.98;;;16.02;;
29120;SDS011;16191;49.548;8.658;2024-03-08T07:43:31;25.88;;;14.95;;
29120;SDS011;16191;49.548;8.658;2024-03-08T07:45:59;26.13;;;15.77;;
29120;SDS011;16191;49.548;8.658;2024-03-08T07:48:26;23.15;;;14.68;;
29120;SDS011;16191;49.548;8.658;2024-03-08T07:50:53;25.10;;;15.65;;
29120;SDS011;16191;49.548;8.658;2024-03-08T07:53:20;26.60;;;15.73;;
29120;SDS011;16191;49.548;8.658;2024-03-08T07:55:47;25.50;;;16.52;;
29120;SDS011;16191;49.548;8.658;2024-03-08T07:58:13;25.65;;;15.23;;
29120;SDS011;16191;49.548;8.658;2024-03-08T08:00:40;25.02;;;14.93;;
29120;SDS011;16191;49.548;8.658;2024-03-08T08:03:09;27.17;;;14.80;;
29120;SDS011;16191;49.548;8.658;2024-03-08T08:05:36;25.55;;;15.57;;
29120;SDS011;16191;49.548;8.658;2024-03-08T08:08:05;24.67;;;15.48;;
29120;SDS011;16191;49.548;8.658;2024-03-08T08:10:34;26.35;;;15.38;;
29120;SDS011;16191;49.548;8.658;2024-03-08T08:13:00;23.40;;;15.00;;
29120;SDS011;16191;49.548;8.658;2024-03-08T08:15:31;26.13;;;14.45;;
29120;SDS011;16191;49.548;8.658;2024-03-08T08:18:00;25.48;;;15.40;;
29120;SDS011;16191;49.548;8.658;2024-03-08T08:20:27;30.30;;;15.35;;
29120;SDS011;16191;49.548;8.658;2024-03-08T08:22:55;28.90;;;15.35;;
29120;SDS011;16191;49.548;8.658;2024-03-08T08:25:22;28.33;;;15.60;;
29120;SDS011;16191;49.548;8.658;2024-03-08T08:27:50;22.02;;;15.00;;
29120;SDS011;16191;49.548;8.658;2024-03-08T08:30:17;21.50;;;13.98;;
29120;SDS011;16191;49.548;8.658;2024-03-08T08:32:44;26.23;;;14.77;;
29120;SDS011;16191;49.548;8.658;2024-03-08T08:35:13;23.60;;;14.45;;
29120;SDS011;16191;49.548;8.658;2024-03-08T08:37:40;24.08;;;14.30;;
29120;SDS011;16191;49.548;8.658;2024-03-08T08:40:08;24.42;;;15.13;;
29120;SDS011;16191;49.548;8.658;2024-03-08T08:42:37;20.70;;;14.10;;
29120;SDS011;16191;49.548;8.658;2024-03-08T08:45:07;25.58;;;15.07;;
29120;SDS011;16191;49.548;8.658;2024-03-08T08:47:43;23.42;;;13.43;;
29120;SDS011;16191;49.548;8.658;2024-03-08T08:50:12;25.85;;;14.20;;
29120;SDS011;16191;49.548;8.658;2024-03-08T08:52:39;24.02;;;14.63;;
29120;SDS011;16191;49.548;8.658;2024-03-08T08:55:07;23.27;;;14.73;;
29120;SDS011;16191;49.548;8.658;2024-03-08T08:57:34;21.73;;;13.82;;
29120;SDS011;16191;49.548;8.658;2024-03-08T09:00:02;23.33;;;13.65;;
29120;SDS011;16191;49.548;8.658;2024-03-08T09:02:33;21.50;;;13.35;;
29120;SDS011;16191;49.548;8.658;2024-03-08T09:05:01;22.45;;;13.60;;
29120;SDS011;16191;49.548;8.658;2024-03-08T09:07:28;23.48;;;13.70;;
29120;SDS011;16191;49.548;8.658;2024-03-08T09:09:55;22.80;;;14.70;;
29120;SDS011;16191;49.548;8.658;2024-03-08T09:12:26;22.00;;;14.32;;
29120;SDS011;16191;49.548;8.658;2024-03-08T09:14:53;20.52;;;13.55;;
29120;SDS011;16191;49.548;8.658;2024-03-08T09:17:19;23.70;;;13.02;;
29120;SDS011;16191;49.548;8.658;2024-03-08T09:19:47;20.23;;;12.55;;
29120;SDS011;16191;49.548;8.658;2024-03-08T09:22:14;20.90;;;13.52;;
29120;SDS011;16191;49.548;8.658;2024-03-08T09:24:41;21.48;;;13.50;;
29120;SDS011;16191;49.548;8.658;2024-03-08T09:27:09;19.40;;;12.75;;
29120;SDS011;16191;49.548;8.658;2024-03-08T09:29:36;19.83;;;13.15;;
29120;SDS011;16191;49.548;8.658;2024-03-08T09:32:02;23.38;;;13.68;;
29120;SDS011;16191;49.548;8.658;2024-03-08T09:34:29;22.55;;;13.40;;
29120;SDS011;16191;49.548;8.658;2024-03-08T09:37:03;22.92;;;13.93;;
29120;SDS011;16191;49.548;8.658;2024-03-08T09:39:31;24.10;;;12.85;;
29120;SDS011;16191;49.548;8.658;2024-03-08T09:41:59;21.27;;;13.40;;
29120;SDS011;16191;49.548;8.658;2024-03-08T09:44:27;21.02;;;13.05;;
29120;SDS011;16191;49.548;8.658;2024-03-08T09:46:55;23.95;;;14.02;;
29120;SDS011;16191;49.548;8.658;2024-03-08T09:49:24;21.15;;;13.73;;
29120;SDS011;16191;49.548;8.658;2024-03-08T09:51:51;22.25;;;13.35;;
29120;SDS011;16191;49.548;8.658;2024-03-08T09:54:19;19.05;;;13.13;;
29120;SDS011;16191;49.548;8.658;2024-03-08T09:56:51;21.13;;;14.05;;
29120;SDS011;16191;49.548;8.658;2024-03-08T09:59:18;21.48;;;13.82;;
29120;SDS011;16191;49.548;8.658;2024-03-08T10:01:54;19.10;;;12.88;;
29120;SDS011;16191;49.548;8.658;2024-03-08T10:04:25;22.50;;;12.90;;
29120;SDS011;16191;49.548;8.658;2024-03-08T10:06:55;22.67;;;13.65;;
29120;SDS011;16191;49.548;8.658;2024-03-08T10:09:23;22.10;;;13.50;;
29120;SDS011;16191;49.548;8.658;2024-03-08T10:11:53;20.15;;;12.93;;
29120;SDS011;16191;49.548;8.658;2024-03-08T10:14:27;19.35;;;13.07;;
29120;SDS011;16191;49.548;8.658;2024-03-08T10:19:21;22.92;;;13.93;;
29120;SDS011;16191;49.548;8.658;2024-03-08T10:21:52;20.75;;;13.00;;
29120;SDS011;16191;49.548;8.658;2024-03-08T10:24:20;23.38;;;13.05;;
29120;SDS011;16191;49.548;8.658;2024-03-08T10:26:47;21.10;;;12.73;;
29120;SDS011;16191;49.548;8.658;2024-03-08T10:29:14;20.70;;;12.77;;
29120;SDS011;16191;49.548;8.658;2024-03-08T10:31:44;19.75;;;12.50;;
29120;SDS011;16191;49.548;8.658;2024-03-08T10:34:13;22.83;;;13.55;;
29120;SDS011;16191;49.548;8.658;2024-03-08T10:36:40;18.73;;;12.77;;
29120;SDS011;16191;49.548;8.658;2024-03-08T10:39:11;19.10;;;13.13;;
29120;SDS011;16191;49.548;8.658;2024-03-08T10:41:57;20.38;;;12.90;;
29120;SDS011;16191;49.548;8.658;2024-03-08T10:52:30;17.88;;;12.52;;
29120;SDS011;16191;49.548;8.658;2024-03-08T10:54:58;19.58;;;12.98;;
29120;SDS011;16191;49.548;8.658;2024-03-08T10:57:26;20.02;;;12.93;;
29120;SDS011;16191;49.548;8.658;2024-03-08T10:59:53;18.42;;;12.65;;
29120;SDS011;16191;49.548;8.658;2024-03-08T11:02:25;22.05;;;13.00;;
29120;SDS011;16191;49.548;8.658;2024-03-08T11:04:54;17.17;;;12.07;;
29120;SDS011;16191;49.548;8.658;2024-03-08T11:07:23;17.33;;;11.73;;
29120;SDS011;16191;49.548;8.658;2024-03-08T11:09:54;18.65;;;12.60;;
29120;SDS011;16191;49.548;8.658;2024-03-08T11:12:26;17.45;;;12.25;;
29120;SDS011;16191;49.548;8.658;2024-03-08T11:14:59;19.13;;;12.68;;
29120;SDS011;16191;49.548;8.658;2024-03-08T11:19:58;20.02;;;12.95;;
29120;SDS011;16191;49.548;8.658;2024-03-08T11:22:28;18.02;;;12.35;;
29120;SDS011;16191;49.548;8.658;2024-03-08T11:25:03;19.48;;;13.27;;
29120;SDS011;16191;49.548;8.658;2024-03-08T11:27:36;20.23;;;12.98;;
29120;SDS011;16191;49.548;8.658;2024-03-08T11:32:44;20.33;;;13.23;;
29120;SDS011;16191;49.548;8.658;2024-03-08T11:35:20;19.92;;;12.45;;
29120;SDS011;16191;49.548;8.658;2024-03-08T11:37:50;20.42;;;12.40;;
29120;SDS011;16191;49.548;8.658;2024-03-08T11:40:17;17.30;;;11.80;;
29120;SDS011;16191;49.548;8.658;2024-03-08T11:42:46;19.70;;;12.27;;
29120;SDS011;16191;49.548;8.658;2024-03-08T11:45:18;16.60;;;11.73;;
29120;SDS011;16191;49.548;8.658;2024-03-08T11:47:48;17.45;;;11.77;;
29120;SDS011;16191;49.548;8.658;2024-03-08T11:50:17;17.17;;;12.10;;
29120;SDS011;16191;49.548;8.658;2024-03-08T11:52:46;16.55;;;12.07;;
29120;SDS011;16191;49.548;8.658;2024-03-08T11:55:13;16.70;;;11.70;;
29120;SDS011;16191;49.548;8.658;2024-03-08T11:57:40;16.13;;;10.88;;
29120;SDS011;16191;49.548;8.658;2024-03-08T12:00:14;16.48;;;11.23;;
29120;SDS011;16191;49.548;8.658;2024-03-08T12:05:29;20.35;;;12.10;;
29120;SDS011;16191;49.548;8.658;2024-03-08T12:07:57;15.82;;;11.13;;
29120;SDS011;16191;49.548;8.658;2024-03-08T12:10:25;17.98;;;12.43;;
29120;SDS011;16191;49.548;8.658;2024-03-08T12:12:53;17.10;;;11.35;;
29120;SDS011;16191;49.548;8.658;2024-03-08T12:15:21;17.13;;;11.90;;
29120;SDS011;16191;49.548;8.658;2024-03-08T12:17:50;18.40;;;12.27;;
29120;SDS011;16191;49.548;8.658;2024-03-08T12:20:21;17.20;;;11.40;;
29120;SDS011;16191;49.548;8.658;2024-03-08T12:22:50;19.23;;;11.63;;
29120;SDS011;16191;49.548;8.658;2024-03-08T12:25:30;17.00;;;12.07;;
29120;SDS011;16191;49.548;8.658;2024-03-08T12:28:06;16.77;;;11.57;;
29120;SDS011;16191;49.548;8.658;2024-03-08T12:30:46;16.52;;;11.07;;
29120;SDS011;16191;49.548;8.658;2024-03-08T12:33:15;18.17;;;11.98;;
29120;SDS011;16191;49.548;8.658;2024-03-08T12:35:50;17.85;;;12.35;;
29120;SDS011;16191;49.548;8.658;2024-03-08T12:38:21;19.55;;;12.02;;
29120;SDS011;16191;49.548;8.658;2024-03-08T12:40:54;15.68;;;11.25;;
29120;SDS011;16191;49.548;8.658;2024-03-08T12:43:23;17.85;;;12.13;;
29120;SDS011;16191;49.548;8.658;2024-03-08T12:45:50;17.95;;;12.63;;
29120;SDS011;16191;49.548;8.658;2024-03-08T12:48:17;16.30;;;11.25;;
29120;SDS011;16191;49.548;8.658;2024-03-08T12:50:45;16.17;;;10.95;;
29120;SDS011;16191;49.548;8.658;2024-03-08T12:53:14;16.08;;;10.73;;
29120;SDS011;16191;49.548;8.658;2024-03-08T12:55:41;14.82;;;10.05;;
29120;SDS011;16191;49.548;8.658;2024-03-08T12:58:07;18.15;;;11.73;;
29120;SDS011;16191;49.548;8.658;2024-03-08T13:00:34;19.13;;;12.60;;
29120;SDS011;16191;49.548;8.658;2024-03-08T13:03:03;17.55;;;11.65;;
29120;SDS011;16191;49.548;8.658;2024-03-08T13:05:30;14.15;;;10.70;;
29120;SDS011;16191;49.548;8.658;2024-03-08T13:07:57;16.58;;;11.85;;
29120;SDS011;16191;49.548;8.658;2024-03-08T13:10:24;15.43;;;11.35;;
29120;SDS011;16191;49.548;8.658;2024-03-08T13:12:50;20.02;;;11.68;;
29120;SDS011;16191;49.548;8.658;2024-03-08T13:15:20;16.93;;;11.57;;
29120;SDS011;16191;49.548;8.658;2024-03-08T13:17:47;16.00;;;10.98;;
29120;SDS011;16191;49.548;8.658;2024-03-08T13:20:15;19.58;;;11.85;;
29120;SDS011;16191;49.548;8.658;2024-03-08T13:22:56;16.30;;;11.40;;
29120;SDS011;16191;49.548;8.658;2024-03-08T13:25:25;17.45;;;11.40;;
29120;SDS011;16191;49.548;8.658;2024-03-08T13:27:52;15.48;;;10.88;;
29120;SDS011;16191;49.548;8.658;2024-03-08T13:30:20;16.40;;;10.60;;
29120;SDS011;16191;49.548;8.658;2024-03-08T13:32:51;14.45;;;11.13;;
29120;SDS011;16191;49.548;8.658;2024-03-08T13:35:19;14.18;;;10.15;;
29120;SDS011;16191;49.548;8.658;2024-03-08T13:37:51;17.05;;;10.52;;
29120;SDS011;16191;49.548;8.658;2024-03-08T13:40:18;14.55;;;10.15;;
29120;SDS011;16191;49.548;8.658;2024-03-08T13:42:47;13.68;;;10.40;;
29120;SDS011;16191;49.548;8.658;2024-03-08T13:45:15;15.60;;;11.30;;
29120;SDS011;16191;49.548;8.658;2024-03-08T13:47:53;17.30;;;10.57;;
29120;SDS011;16191;49.548;8.658;2024-03-08T13:50:20;13.30;;;10.57;;
29120;SDS011;16191;49.548;8.658;2024-03-08T13:52:52;15.45;;;9.73;;
29120;SDS011;16191;49.548;8.658;2024-03-08T13:55:22;15.90;;;10.25;;
29120;SDS011;16191;49.548;8.658;2024-03-08T13:57:50;16.95;;;10.63;;
29120;SDS011;16191;49.548;8.658;2024-03-08T14:02:53;14.75;;;10.07;;
29120;SDS011;16191;49.548;8.658;2024-03-08T14:05:20;15.13;;;10.50;;
29120;SDS011;16191;49.548;8.658;2024-03-08T14:07:48;15.80;;;10.75;;
29120;SDS011;16191;49.548;8.658;2024-03-08T14:10:16;14.73;;;10.35;;
29120;SDS011;16191;49.548;8.658;2024-03-08T14:12:47;17.95;;;10.23;;
29120;SDS011;16191;49.548;8.658;2024-03-08T14:15:15;14.88;;;9.57;;
29120;SDS011;16191;49.548;8.658;2024-03-08T14:17:43;15.48;;;10.13;;
29120;SDS011;16191;49.548;8.658;2024-03-08T14:22:40;14.82;;;10.40;;
29120;SDS011;16191;49.548;8.658;2024-03-08T14:25:06;13.80;;;10.77;;
29120;SDS011;16191;49.548;8.658;2024-03-08T14:27:46;14.25;;;10.05;;
29120;SDS011;16191;49.548;8.658;2024-03-08T14:30:14;14.60;;;11.15;;
29120;SDS011;16191;49.548;8.658;2024-03-08T14:32:58;15.57;;;10.38;;
29120;SDS011;16191;49.548;8.658;2024-03-08T14:35:28;15.20;;;10.60;;
29120;SDS011;16191;49.548;8.658;2024-03-08T14:37:56;14.43;;;10.45;;
29120;SDS011;16191;49.548;8.658;2024-03-08T14:40:27;17.88;;;10.55;;
29120;SDS011;16191;49.548;8.658;2024-03-08T14:42:53;15.32;;;10.63;;
29120;SDS011;16191;49.548;8.658;2024-03-08T14:45:20;17.08;;;9.55;;
29120;SDS011;16191;49.548;8.658;2024-03-08T14:47:47;15.05;;;10.98;;
29120;SDS011;16191;49.548;8.658;2024-03-08T14:50:18;13.93;;;10.13;;
29120;SDS011;16191;49.548;8.658;2024-03-08T14:52:46;14.98;;;10.27;;
29120;SDS011;16191;49.548;8.658;2024-03-08T14:55:15;14.90;;;9.50;;
29120;SDS011;16191;49.548;8.658;2024-03-08T14:57:43;14.10;;;10.07;;